sensor_id;sensor_type;location;lat;lon;timestamp;temperature;humidity
27559;DHT22;15002;52.028;5.670;2022-09-11T00:00:53;18.40;99.90
27559;DHT22;15002;52.028;5.670;2022-09-11T00:03:20;18.30;99.90
27559;DHT22;15002;52.028;5.670;2022-09-11T00:05:49;18.40;99.90
27559;DHT22;15002;52.028;5.670;2022-09-11T00:08:17;18.40;99.90
27559;DHT22;15002;52.028;5.670;2022-09-11T00:10:44;18.50;99.90
27559;DHT22;15002;52.028;5.670;2022-09-11T00:13:12;18.50;99.90
27559;DHT22;15002;52.028;5.670;2022-09-11T00:15:44;18.60;99.90
27559;DHT22;15002;52.028;5.670;2022-09-11T00:18:14;18.80;99.90
27559;DHT22;15002;52.028;5.670;2022-09-11T00:20:51;18.60;99.90
27559;DHT22;15002;52.028;5.670;2022-09-11T00:23:18;18.50;99.90
27559;DHT22;15002;52.028;5.670;2022-09-11T00:25:45;18.50;99.90
27559;DHT22;15002;52.028;5.670;2022-09-11T00:28:13;18.40;99.90
27559;DHT22;15002;52.028;5.670;2022-09-11T00:30:41;18.30;99.90
27559;DHT22;15002;52.028;5.670;2022-09-11T00:33:09;18.20;99.90
27559;DHT22;15002;52.028;5.670;2022-09-11T00:35:35;18.10;99.90
27559;DHT22;15002;52.028;5.670;2022-09-11T00:38:00;18.10;99.90
27559;DHT22;15002;52.028;5.670;2022-09-11T00:40:26;18.20;99.90
27559;DHT22;15002;52.028;5.670;2022-09-11T00:42:53;18.20;99.90
27559;DHT22;15002;52.028;5.670;2022-09-11T00:45:22;18.00;99.90
27559;DHT22;15002;52.028;5.670;2022-09-11T00:47:49;18.00;99.90
27559;DHT22;15002;52.028;5.670;2022-09-11T00:50:19;17.90;99.90
27559;DHT22;15002;52.028;5.670;2022-09-11T00:52:56;17.90;99.90
27559;DHT22;15002;52.028;5.670;2022-09-11T00:55:25;17.80;99.90
27559;DHT22;15002;52.028;5.670;2022-09-11T00:57:59;17.80;99.90
27559;DHT22;15002;52.028;5.670;2022-09-11T01:00:26;17.80;99.90
27559;DHT22;15002;52.028;5.670;2022-09-11T01:02:53;17.80;99.90
27559;DHT22;15002;52.028;5.670;2022-09-11T01:05:20;17.90;99.90
27559;DHT22;15002;52.028;5.670;2022-09-11T01:07:50;17.80;99.90
27559;DHT22;15002;52.028;5.670;2022-09-11T01:27:09;17.60;99.90
27559;DHT22;15002;52.028;5.670;2022-09-11T01:30:10;17.60;99.90
27559;DHT22;15002;52.028;5.670;2022-09-11T01:35:57;17.60;99.90
27559;DHT22;15002;52.028;5.670;2022-09-11T01:41:41;17.50;99.90
27559;DHT22;15002;52.028;5.670;2022-09-11T01:44:17;17.60;99.90
27559;DHT22;15002;52.028;5.670;2022-09-11T01:46:47;17.50;99.90
27559;DHT22;15002;52.028;5.670;2022-09-11T01:49:26;17.40;99.90
27559;DHT22;15002;52.028;5.670;2022-09-11T01:51:56;17.30;99.90
27559;DHT22;15002;52.028;5.670;2022-09-11T01:54:28;17.40;99.90
27559;DHT22;15002;52.028;5.670;2022-09-11T01:57:10;17.30;99.90
27559;DHT22;15002;52.028;5.670;2022-09-11T01:59:45;17.30;99.90
27559;DHT22;15002;52.028;5.670;2022-09-11T02:02:15;17.20;99.90
27559;DHT22;15002;52.028;5.670;2022-09-11T02:04:47;17.30;99.90
27559;DHT22;15002;52.028;5.670;2022-09-11T02:07:20;17.30;99.90
27559;DHT22;15002;52.028;5.670;2022-09-11T02:10:00;17.20;99.90
27559;DHT22;15002;52.028;5.670;2022-09-11T02:12:37;17.30;99.90
27559;DHT22;15002;52.028;5.670;2022-09-11T02:15:06;17.30;99.90
27559;DHT22;15002;52.028;5.670;2022-09-11T02:17:58;17.30;99.90
27559;DHT22;15002;52.028;5.670;2022-09-11T02:20:26;17.30;99.90
27559;DHT22;15002;52.028;5.670;2022-09-11T02:22:53;17.30;99.90
27559;DHT22;15002;52.028;5.670;2022-09-11T02:25:19;17.20;99.90
27559;DHT22;15002;52.028;5.670;2022-09-11T02:27:44;17.30;99.90
27559;DHT22;15002;52.028;5.670;2022-09-11T02:30:11;17.30;99.90
27559;DHT22;15002;52.028;5.670;2022-09-11T02:32:39;17.20;99.90
27559;DHT22;15002;52.028;5.670;2022-09-11T02:35:07;17.30;99.90
27559;DHT22;15002;52.028;5.670;2022-09-11T02:38:26;17.30;99.90
27559;DHT22;15002;52.028;5.670;2022-09-11T02:40:39;17.30;99.90
27559;DHT22;15002;52.028;5.670;2022-09-11T02:45:42;17.20;99.90
27559;DHT22;15002;52.028;5.670;2022-09-11T02:54:24;17.40;99.90
27559;DHT22;15002;52.028;5.670;2022-09-11T02:57:12;17.60;99.90
27559;DHT22;15002;52.028;5.670;2022-09-11T02:59:44;17.60;99.90
27559;DHT22;15002;52.028;5.670;2022-09-11T03:02:13;17.50;99.90
27559;DHT22;15002;52.028;5.670;2022-09-11T03:04:39;17.50;99.90
27559;DHT22;15002;52.028;5.670;2022-09-11T03:07:06;17.60;99.90
27559;DHT22;15002;52.028;5.670;2022-09-11T03:09:32;17.60;99.90
27559;DHT22;15002;52.028;5.670;2022-09-11T03:12:00;17.50;99.90
27559;DHT22;15002;52.028;5.670;2022-09-11T03:14:26;17.40;99.90
27559;DHT22;15002;52.028;5.670;2022-09-11T03:16:51;17.30;99.90
27559;DHT22;15002;52.028;5.670;2022-09-11T03:19:18;17.30;99.90
27559;DHT22;15002;52.028;5.670;2022-09-11T03:21:43;17.30;99.90
27559;DHT22;15002;52.028;5.670;2022-09-11T03:24:09;17.30;99.90
27559;DHT22;15002;52.028;5.670;2022-09-11T03:26:35;17.30;99.90
27559;DHT22;15002;52.028;5.670;2022-09-11T03:29:02;17.20;99.90
27559;DHT22;15002;52.028;5.670;2022-09-11T03:31:28;17.20;99.90
27559;DHT22;15002;52.028;5.670;2022-09-11T03:33:54;17.10;99.90
27559;DHT22;15002;52.028;5.670;2022-09-11T03:36:19;17.10;99.90
27559;DHT22;15002;52.028;5.670;2022-09-11T03:38:46;17.20;99.90
27559;DHT22;15002;52.028;5.670;2022-09-11T03:41:12;17.10;99.90
27559;DHT22;15002;52.028;5.670;2022-09-11T03:43:38;17.10;99.90
27559;DHT22;15002;52.028;5.670;2022-09-11T03:46:04;17.10;99.90
27559;DHT22;15002;52.028;5.670;2022-09-11T03:48:30;17.20;99.90
27559;DHT22;15002;52.028;5.670;2022-09-11T03:50:55;17.10;99.90
27559;DHT22;15002;52.028;5.670;2022-09-11T03:53:24;17.00;99.90
27559;DHT22;15002;52.028;5.670;2022-09-11T03:55:50;16.90;99.90
27559;DHT22;15002;52.028;5.670;2022-09-11T03:58:16;16.90;99.90
27559;DHT22;15002;52.028;5.670;2022-09-11T04:00:44;17.00;99.90
27559;DHT22;15002;52.028;5.670;2022-09-11T04:03:14;17.00;99.90
27559;DHT22;15002;52.028;5.670;2022-09-11T04:05:40;16.90;99.90
27559;DHT22;15002;52.028;5.670;2022-09-11T04:08:13;16.90;99.90
27559;DHT22;15002;52.028;5.670;2022-09-11T04:10:38;16.90;99.90
27559;DHT22;15002;52.028;5.670;2022-09-11T04:13:05;16.90;99.90
27559;DHT22;15002;52.028;5.670;2022-09-11T04:15:30;16.90;99.90
27559;DHT22;15002;52.028;5.670;2022-09-11T04:17:57;16.90;99.90
27559;DHT22;15002;52.028;5.670;2022-09-11T04:20:23;17.00;99.90
27559;DHT22;15002;52.028;5.670;2022-09-11T04:22:49;16.90;99.90
27559;DHT22;15002;52.028;5.670;2022-09-11T04:25:15;16.70;99.90
27559;DHT22;15002;52.028;5.670;2022-09-11T04:27:41;16.70;99.90
27559;DHT22;15002;52.028;5.670;2022-09-11T04:30:07;16.50;99.90
27559;DHT22;15002;52.028;5.670;2022-09-11T04:32:33;16.50;99.90
27559;DHT22;15002;52.028;5.670;2022-09-11T04:34:58;16.50;99.90
27559;DHT22;15002;52.028;5.670;2022-09-11T04:37:27;16.40;99.90
27559;DHT22;15002;52.028;5.670;2022-09-11T04:39:52;16.50;99.90
27559;DHT22;15002;52.028;5.670;2022-09-11T04:42:18;16.50;99.90
27559;DHT22;15002;52.028;5.670;2022-09-11T04:44:44;16.50;99.90
27559;DHT22;15002;52.028;5.670;2022-09-11T04:47:11;16.40;99.90
27559;DHT22;15002;52.028;5.670;2022-09-11T04:49:36;16.40;99.90
27559;DHT22;15002;52.028;5.670;2022-09-11T04:52:02;16.40;99.90
27559;DHT22;15002;52.028;5.670;2022-09-11T04:54:30;16.40;99.90
27559;DHT22;15002;52.028;5.670;2022-09-11T04:56:58;16.40;99.90
27559;DHT22;15002;52.028;5.670;2022-09-11T04:59:24;16.40;99.90
27559;DHT22;15002;52.028;5.670;2022-09-11T05:01:49;16.40;99.90
27559;DHT22;15002;52.028;5.670;2022-09-11T05:04:16;16.40;99.90
27559;DHT22;15002;52.028;5.670;2022-09-11T05:06:43;16.40;99.90
27559;DHT22;15002;52.028;5.670;2022-09-11T05:09:13;16.40;99.90
27559;DHT22;15002;52.028;5.670;2022-09-11T05:11:39;16.40;99.90
27559;DHT22;15002;52.028;5.670;2022-09-11T05:14:05;16.50;99.90
27559;DHT22;15002;52.028;5.670;2022-09-11T05:16:32;16.50;99.90
27559;DHT22;15002;52.028;5.670;2022-09-11T05:19:02;16.50;99.90
27559;DHT22;15002;52.028;5.670;2022-09-11T05:21:29;16.50;99.90
27559;DHT22;15002;52.028;5.670;2022-09-11T05:23:56;16.40;99.90
27559;DHT22;15002;52.028;5.670;2022-09-11T05:26:34;16.40;99.90
27559;DHT22;15002;52.028;5.670;2022-09-11T05:29:02;16.30;99.90
27559;DHT22;15002;52.028;5.670;2022-09-11T05:31:28;16.30;99.90
27559;DHT22;15002;52.028;5.670;2022-09-11T05:33:54;16.50;99.90
27559;DHT22;15002;52.028;5.670;2022-09-11T05:36:21;16.50;99.90
27559;DHT22;15002;52.028;5.670;2022-09-11T05:38:47;16.60;99.90
27559;DHT22;15002;52.028;5.670;2022-09-11T05:41:13;16.60;99.90
27559;DHT22;15002;52.028;5.670;2022-09-11T05:43:40;16.60;99.90
27559;DHT22;15002;52.028;5.670;2022-09-11T05:46:06;16.50;99.90
27559;DHT22;15002;52.028;5.670;2022-09-11T05:48:35;16.60;99.90
27559;DHT22;15002;52.028;5.670;2022-09-11T05:51:06;16.80;99.90
27559;DHT22;15002;52.028;5.670;2022-09-11T05:53:32;16.80;99.90
27559;DHT22;15002;52.028;5.670;2022-09-11T05:56:14;16.90;99.90
27559;DHT22;15002;52.028;5.670;2022-09-11T05:58:44;16.90;99.90
27559;DHT22;15002;52.028;5.670;2022-09-11T06:01:12;16.80;99.90
27559;DHT22;15002;52.028;5.670;2022-09-11T06:03:38;16.80;99.90
27559;DHT22;15002;52.028;5.670;2022-09-11T06:06:06;17.10;99.90
27559;DHT22;15002;52.028;5.670;2022-09-11T06:08:33;17.10;99.90
27559;DHT22;15002;52.028;5.670;2022-09-11T06:11:00;17.10;99.90
27559;DHT22;15002;52.028;5.670;2022-09-11T06:13:31;17.10;99.90
27559;DHT22;15002;52.028;5.670;2022-09-11T06:15:59;17.20;99.90
27559;DHT22;15002;52.028;5.670;2022-09-11T06:18:25;17.20;99.90
27559;DHT22;15002;52.028;5.670;2022-09-11T06:21:10;17.30;99.90
27559;DHT22;15002;52.028;5.670;2022-09-11T06:23:36;17.50;99.90
27559;DHT22;15002;52.028;5.670;2022-09-11T06:26:09;17.80;99.90
27559;DHT22;15002;52.028;5.670;2022-09-11T06:28:35;18.00;99.90
27559;DHT22;15002;52.028;5.670;2022-09-11T06:31:06;18.30;99.90
27559;DHT22;15002;52.028;5.670;2022-09-11T06:33:33;18.60;99.90
27559;DHT22;15002;52.028;5.670;2022-09-11T06:36:00;19.00;99.90
27559;DHT22;15002;52.028;5.670;2022-09-11T06:38:27;19.40;99.90
27559;DHT22;15002;52.028;5.670;2022-09-11T06:40:53;19.50;99.90
27559;DHT22;15002;52.028;5.670;2022-09-11T06:43:19;19.50;99.90
27559;DHT22;15002;52.028;5.670;2022-09-11T06:45:45;19.70;99.90
27559;DHT22;15002;52.028;5.670;2022-09-11T06:48:14;19.70;99.90
27559;DHT22;15002;52.028;5.670;2022-09-11T06:50:40;19.70;99.90
27559;DHT22;15002;52.028;5.670;2022-09-11T06:53:06;19.80;99.90
27559;DHT22;15002;52.028;5.670;2022-09-11T06:55:32;19.80;99.90
27559;DHT22;15002;52.028;5.670;2022-09-11T06:57:58;20.10;99.90
27559;DHT22;15002;52.028;5.670;2022-09-11T07:00:24;20.40;99.90
27559;DHT22;15002;52.028;5.670;2022-09-11T07:02:51;20.60;99.90
27559;DHT22;15002;52.028;5.670;2022-09-11T07:05:20;20.60;99.90
27559;DHT22;15002;52.028;5.670;2022-09-11T07:07:51;20.70;99.90
27559;DHT22;15002;52.028;5.670;2022-09-11T07:10:17;20.70;99.90
27559;DHT22;15002;52.028;5.670;2022-09-11T07:12:43;21.00;99.90
27559;DHT22;15002;52.028;5.670;2022-09-11T07:15:09;21.50;99.90
27559;DHT22;15002;52.028;5.670;2022-09-11T07:17:35;21.80;99.90
27559;DHT22;15002;52.028;5.670;2022-09-11T07:20:02;22.00;99.90
27559;DHT22;15002;52.028;5.670;2022-09-11T07:22:29;22.00;99.90
27559;DHT22;15002;52.028;5.670;2022-09-11T07:24:55;21.90;99.90
27559;DHT22;15002;52.028;5.670;2022-09-11T07:27:21;21.90;99.90
27559;DHT22;15002;52.028;5.670;2022-09-11T07:29:47;22.10;99.90
27559;DHT22;15002;52.028;5.670;2022-09-11T07:32:12;22.60;99.90
27559;DHT22;15002;52.028;5.670;2022-09-11T07:34:38;23.10;99.90
27559;DHT22;15002;52.028;5.670;2022-09-11T07:37:03;23.20;99.90
27559;DHT22;15002;52.028;5.670;2022-09-11T07:39:29;23.40;99.90
27559;DHT22;15002;52.028;5.670;2022-09-11T07:41:55;23.50;99.90
27559;DHT22;15002;52.028;5.670;2022-09-11T07:44:21;23.50;99.90
27559;DHT22;15002;52.028;5.670;2022-09-11T07:46:48;23.70;99.90
27559;DHT22;15002;52.028;5.670;2022-09-11T07:49:16;24.00;99.90
27559;DHT22;15002;52.028;5.670;2022-09-11T07:51:42;24.10;99.90
27559;DHT22;15002;52.028;5.670;2022-09-11T07:54:11;24.20;99.90
27559;DHT22;15002;52.028;5.670;2022-09-11T07:56:36;24.30;99.90
27559;DHT22;15002;52.028;5.670;2022-09-11T07:59:06;24.10;99.90
27559;DHT22;15002;52.028;5.670;2022-09-11T08:01:32;23.90;99.90
27559;DHT22;15002;52.028;5.670;2022-09-11T08:04:04;23.90;99.90
27559;DHT22;15002;52.028;5.670;2022-09-11T08:06:33;23.90;99.90
27559;DHT22;15002;52.028;5.670;2022-09-11T08:09:00;24.00;99.90
27559;DHT22;15002;52.028;5.670;2022-09-11T08:11:28;24.30;99.90
27559;DHT22;15002;52.028;5.670;2022-09-11T08:13:56;24.40;99.90
27559;DHT22;15002;52.028;5.670;2022-09-11T08:16:24;24.60;99.90
27559;DHT22;15002;52.028;5.670;2022-09-11T08:18:50;24.60;99.30
27559;DHT22;15002;52.028;5.670;2022-09-11T08:21:17;24.50;99.80
27559;DHT22;15002;52.028;5.670;2022-09-11T08:23:43;24.50;99.90
27559;DHT22;15002;52.028;5.670;2022-09-11T08:26:12;24.60;99.30
27559;DHT22;15002;52.028;5.670;2022-09-11T08:28:39;24.30;99.50
27559;DHT22;15002;52.028;5.670;2022-09-11T08:31:07;24.20;99.90
27559;DHT22;15002;52.028;5.670;2022-09-11T08:33:33;24.30;99.80
27559;DHT22;15002;52.028;5.670;2022-09-11T08:36:01;24.20;99.20
27559;DHT22;15002;52.028;5.670;2022-09-11T08:38:28;24.00;99.90
27559;DHT22;15002;52.028;5.670;2022-09-11T08:40:56;24.20;99.90
27559;DHT22;15002;52.028;5.670;2022-09-11T08:43:32;24.00;99.70
27559;DHT22;15002;52.028;5.670;2022-09-11T08:46:02;23.70;99.90
27559;DHT22;15002;52.028;5.670;2022-09-11T08:51:03;23.70;99.90
27559;DHT22;15002;52.028;5.670;2022-09-11T08:53:30;23.90;99.90
27559;DHT22;15002;52.028;5.670;2022-09-11T08:56:02;24.10;99.90
27559;DHT22;15002;52.028;5.670;2022-09-11T08:58:54;24.30;99.90
27559;DHT22;15002;52.028;5.670;2022-09-11T09:01:34;24.50;99.50
27559;DHT22;15002;52.028;5.670;2022-09-11T09:14:43;24.50;98.90
27559;DHT22;15002;52.028;5.670;2022-09-11T09:17:18;24.30;99.70
27559;DHT22;15002;52.028;5.670;2022-09-11T09:19:48;24.70;98.80
27559;DHT22;15002;52.028;5.670;2022-09-11T09:22:39;24.90;99.10
27559;DHT22;15002;52.028;5.670;2022-09-11T09:25:12;25.20;97.70
27559;DHT22;15002;52.028;5.670;2022-09-11T09:27:48;25.50;97.40
27559;DHT22;15002;52.028;5.670;2022-09-11T09:30:18;25.70;96.70
27559;DHT22;15002;52.028;5.670;2022-09-11T09:35:44;25.60;95.60
27559;DHT22;15002;52.028;5.670;2022-09-11T09:38:12;25.80;95.00
27559;DHT22;15002;52.028;5.670;2022-09-11T09:40:41;26.00;94.40
27559;DHT22;15002;52.028;5.670;2022-09-11T09:46:26;25.90;94.30
27559;DHT22;15002;52.028;5.670;2022-09-11T09:48:56;25.90;94.10
27559;DHT22;15002;52.028;5.670;2022-09-11T09:51:22;26.00;94.30
27559;DHT22;15002;52.028;5.670;2022-09-11T09:53:59;25.90;93.10
27559;DHT22;15002;52.028;5.670;2022-09-11T09:56:27;25.70;93.20
27559;DHT22;15002;52.028;5.670;2022-09-11T09:59:01;25.60;93.70
27559;DHT22;15002;52.028;5.670;2022-09-11T10:01:46;25.90;92.90
27559;DHT22;15002;52.028;5.670;2022-09-11T10:04:25;25.70;92.90
27559;DHT22;15002;52.028;5.670;2022-09-11T10:09:31;25.70;93.40
27559;DHT22;15002;52.028;5.670;2022-09-11T10:12:03;26.10;94.20
27559;DHT22;15002;52.028;5.670;2022-09-11T10:17:30;26.00;93.10
27559;DHT22;15002;52.028;5.670;2022-09-11T10:22:44;25.60;93.10
27559;DHT22;15002;52.028;5.670;2022-09-11T10:25:20;25.20;94.20
27559;DHT22;15002;52.028;5.670;2022-09-11T10:28:03;25.20;94.30
27559;DHT22;15002;52.028;5.670;2022-09-11T10:30:41;25.30;94.40
27559;DHT22;15002;52.028;5.670;2022-09-11T10:33:38;25.10;94.50
27559;DHT22;15002;52.028;5.670;2022-09-11T10:36:07;24.80;94.40
27559;DHT22;15002;52.028;5.670;2022-09-11T10:41:15;24.50;94.40
27559;DHT22;15002;52.028;5.670;2022-09-11T10:43:56;24.60;94.00
27559;DHT22;15002;52.028;5.670;2022-09-11T10:46:25;24.60;93.60
27559;DHT22;15002;52.028;5.670;2022-09-11T10:51:28;24.90;93.80
27559;DHT22;15002;52.028;5.670;2022-09-11T10:57:08;24.80;93.30
27559;DHT22;15002;52.028;5.670;2022-09-11T11:02:38;24.60;92.50
27559;DHT22;15002;52.028;5.670;2022-09-11T11:35:28;25.20;92.50
27559;DHT22;15002;52.028;5.670;2022-09-11T11:38:25;25.20;93.20
27559;DHT22;15002;52.028;5.670;2022-09-11T11:40:58;25.30;93.00
27559;DHT22;15002;52.028;5.670;2022-09-11T11:43:31;25.20;92.60
27559;DHT22;15002;52.028;5.670;2022-09-11T11:46:02;25.20;92.50
27559;DHT22;15002;52.028;5.670;2022-09-11T11:48:36;25.10;92.20
27559;DHT22;15002;52.028;5.670;2022-09-11T11:51:13;25.10;92.60
27559;DHT22;15002;52.028;5.670;2022-09-11T11:56:49;25.20;92.40
27559;DHT22;15002;52.028;5.670;2022-09-11T12:02:18;25.30;92.10
27559;DHT22;15002;52.028;5.670;2022-09-11T12:07:25;25.30;92.00
27559;DHT22;15002;52.028;5.670;2022-09-11T12:09:53;25.30;92.10
27559;DHT22;15002;52.028;5.670;2022-09-11T12:12:20;25.20;91.60
27559;DHT22;15002;52.028;5.670;2022-09-11T12:14:54;25.20;91.60
27559;DHT22;15002;52.028;5.670;2022-09-11T12:17:28;25.30;91.50
27559;DHT22;15002;52.028;5.670;2022-09-11T12:22:41;25.30;90.60
27559;DHT22;15002;52.028;5.670;2022-09-11T12:32:47;25.20;90.90
27559;DHT22;15002;52.028;5.670;2022-09-11T12:35:38;25.00;90.70
27559;DHT22;15002;52.028;5.670;2022-09-11T12:45:47;25.40;90.70
27559;DHT22;15002;52.028;5.670;2022-09-11T12:48:15;25.50;91.10
27559;DHT22;15002;52.028;5.670;2022-09-11T12:50:50;25.40;91.40
27559;DHT22;15002;52.028;5.670;2022-09-11T12:53:25;25.40;91.80
27559;DHT22;15002;52.028;5.670;2022-09-11T13:03:53;26.00;91.00
27559;DHT22;15002;52.028;5.670;2022-09-11T13:06:20;26.00;90.70
27559;DHT22;15002;52.028;5.670;2022-09-11T13:08:58;26.10;90.00
27559;DHT22;15002;52.028;5.670;2022-09-11T13:11:39;26.00;89.40
27559;DHT22;15002;52.028;5.670;2022-09-11T13:16:54;26.20;90.90
27559;DHT22;15002;52.028;5.670;2022-09-11T13:19:20;26.10;90.50
27559;DHT22;15002;52.028;5.670;2022-09-11T13:21:50;26.20;89.90
27559;DHT22;15002;52.028;5.670;2022-09-11T13:24:21;26.00;90.70
27559;DHT22;15002;52.028;5.670;2022-09-11T13:26:48;26.20;90.10
27559;DHT22;15002;52.028;5.670;2022-09-11T13:29:21;26.20;90.20
27559;DHT22;15002;52.028;5.670;2022-09-11T13:31:46;26.10;90.30
27559;DHT22;15002;52.028;5.670;2022-09-11T13:34:15;26.10;90.70
27559;DHT22;15002;52.028;5.670;2022-09-11T13:36:41;26.10;89.80
27559;DHT22;15002;52.028;5.670;2022-09-11T13:39:08;26.20;90.00
27559;DHT22;15002;52.028;5.670;2022-09-11T13:41:37;26.30;89.00
27559;DHT22;15002;52.028;5.670;2022-09-11T13:46:59;25.80;90.40
27559;DHT22;15002;52.028;5.670;2022-09-11T13:49:32;25.90;90.10
27559;DHT22;15002;52.028;5.670;2022-09-11T13:51:59;26.00;89.30
27559;DHT22;15002;52.028;5.670;2022-09-11T13:54:35;25.90;89.60
27559;DHT22;15002;52.028;5.670;2022-09-11T13:59:38;25.80;91.00
27559;DHT22;15002;52.028;5.670;2022-09-11T14:05:14;25.80;90.50
27559;DHT22;15002;52.028;5.670;2022-09-11T14:10:58;25.90;90.80
27559;DHT22;15002;52.028;5.670;2022-09-11T14:13:38;25.90;91.00
27559;DHT22;15002;52.028;5.670;2022-09-11T14:23:54;25.60;90.60
27559;DHT22;15002;52.028;5.670;2022-09-11T14:31:28;25.60;90.70
27559;DHT22;15002;52.028;5.670;2022-09-11T14:37:04;25.60;90.20
27559;DHT22;15002;52.028;5.670;2022-09-11T14:39:42;25.70;90.50
27559;DHT22;15002;52.028;5.670;2022-09-11T14:42:19;25.60;90.30
27559;DHT22;15002;52.028;5.670;2022-09-11T14:44:47;25.60;90.00
27559;DHT22;15002;52.028;5.670;2022-09-11T14:47:15;25.70;90.30
27559;DHT22;15002;52.028;5.670;2022-09-11T14:49:45;25.60;89.80
27559;DHT22;15002;52.028;5.670;2022-09-11T14:52:29;25.60;90.60
27559;DHT22;15002;52.028;5.670;2022-09-11T14:54:54;25.60;90.10
27559;DHT22;15002;52.028;5.670;2022-09-11T14:57:30;25.50;90.40
27559;DHT22;15002;52.028;5.670;2022-09-11T14:59:56;25.60;90.80
27559;DHT22;15002;52.028;5.670;2022-09-11T15:02:25;25.60;90.70
27559;DHT22;15002;52.028;5.670;2022-09-11T15:04:52;25.70;90.90
27559;DHT22;15002;52.028;5.670;2022-09-11T15:07:19;25.70;90.10
27559;DHT22;15002;52.028;5.670;2022-09-11T15:09:46;25.60;90.50
27559;DHT22;15002;52.028;5.670;2022-09-11T15:12:13;25.60;90.80
27559;DHT22;15002;52.028;5.670;2022-09-11T15:14:39;25.60;90.40
27559;DHT22;15002;52.028;5.670;2022-09-11T15:17:07;25.50;90.20
27559;DHT22;15002;52.028;5.670;2022-09-11T15:19:33;25.50;90.50
27559;DHT22;15002;52.028;5.670;2022-09-11T15:22:00;25.50;90.30
27559;DHT22;15002;52.028;5.670;2022-09-11T15:24:27;25.60;90.70
27559;DHT22;15002;52.028;5.670;2022-09-11T15:26:54;25.70;90.10
27559;DHT22;15002;52.028;5.670;2022-09-11T15:29:20;25.70;90.10
27559;DHT22;15002;52.028;5.670;2022-09-11T15:31:47;25.60;90.10
27559;DHT22;15002;52.028;5.670;2022-09-11T15:34:13;25.60;90.40
27559;DHT22;15002;52.028;5.670;2022-09-11T15:36:40;25.60;90.00
27559;DHT22;15002;52.028;5.670;2022-09-11T15:39:11;25.70;89.60
27559;DHT22;15002;52.028;5.670;2022-09-11T15:41:37;25.60;90.10
27559;DHT22;15002;52.028;5.670;2022-09-11T15:44:09;25.40;90.20
27559;DHT22;15002;52.028;5.670;2022-09-11T15:46:35;25.50;89.70
27559;DHT22;15002;52.028;5.670;2022-09-11T15:49:00;25.40;90.40
27559;DHT22;15002;52.028;5.670;2022-09-11T15:51:26;25.30;90.60
27559;DHT22;15002;52.028;5.670;2022-09-11T15:53:52;25.60;88.60
27559;DHT22;15002;52.028;5.670;2022-09-11T15:56:20;25.50;89.30
27559;DHT22;15002;52.028;5.670;2022-09-11T15:58:47;25.60;89.40
27559;DHT22;15002;52.028;5.670;2022-09-11T16:01:21;25.50;89.50
27559;DHT22;15002;52.028;5.670;2022-09-11T16:03:51;25.60;89.60
27559;DHT22;15002;52.028;5.670;2022-09-11T16:06:18;25.60;89.50
27559;DHT22;15002;52.028;5.670;2022-09-11T16:08:45;25.40;89.20
27559;DHT22;15002;52.028;5.670;2022-09-11T16:11:11;25.50;90.20
27559;DHT22;15002;52.028;5.670;2022-09-11T16:13:37;25.50;90.20
27559;DHT22;15002;52.028;5.670;2022-09-11T16:16:06;25.50;89.40
27559;DHT22;15002;52.028;5.670;2022-09-11T16:18:36;25.50;90.00
27559;DHT22;15002;52.028;5.670;2022-09-11T16:21:03;25.70;88.80
27559;DHT22;15002;52.028;5.670;2022-09-11T16:23:29;25.50;89.80
27559;DHT22;15002;52.028;5.670;2022-09-11T16:25:55;25.50;90.00
27559;DHT22;15002;52.028;5.670;2022-09-11T16:28:21;25.60;90.30
27559;DHT22;15002;52.028;5.670;2022-09-11T16:30:52;25.60;90.40
27559;DHT22;15002;52.028;5.670;2022-09-11T16:33:18;25.60;89.90
27559;DHT22;15002;52.028;5.670;2022-09-11T16:36:04;25.60;90.00
27559;DHT22;15002;52.028;5.670;2022-09-11T16:38:31;25.50;90.00
27559;DHT22;15002;52.028;5.670;2022-09-11T16:41:03;25.60;90.20
27559;DHT22;15002;52.028;5.670;2022-09-11T16:43:32;25.60;90.10
27559;DHT22;15002;52.028;5.670;2022-09-11T16:45:59;25.60;90.00
27559;DHT22;15002;52.028;5.670;2022-09-11T16:48:24;25.50;90.40
27559;DHT22;15002;52.028;5.670;2022-09-11T16:50:52;25.40;90.00
27559;DHT22;15002;52.028;5.670;2022-09-11T16:53:19;25.50;90.40
27559;DHT22;15002;52.028;5.670;2022-09-11T16:55:44;25.40;90.50
27559;DHT22;15002;52.028;5.670;2022-09-11T16:58:11;25.30;90.60
27559;DHT22;15002;52.028;5.670;2022-09-11T17:00:38;25.20;90.20
27559;DHT22;15002;52.028;5.670;2022-09-11T17:03:04;25.10;90.80
27559;DHT22;15002;52.028;5.670;2022-09-11T17:05:30;25.20;90.90
27559;DHT22;15002;52.028;5.670;2022-09-11T17:07:56;25.00;90.90
27559;DHT22;15002;52.028;5.670;2022-09-11T17:10:22;24.90;91.30
27559;DHT22;15002;52.028;5.670;2022-09-11T17:12:48;24.90;91.40
27559;DHT22;15002;52.028;5.670;2022-09-11T17:15:15;24.90;91.40
27559;DHT22;15002;52.028;5.670;2022-09-11T17:17:40;24.70;91.20
27559;DHT22;15002;52.028;5.670;2022-09-11T17:20:08;24.70;91.40
27559;DHT22;15002;52.028;5.670;2022-09-11T17:22:36;24.60;92.10
27559;DHT22;15002;52.028;5.670;2022-09-11T17:25:02;24.40;91.30
27559;DHT22;15002;52.028;5.670;2022-09-11T17:27:28;24.40;91.60
27559;DHT22;15002;52.028;5.670;2022-09-11T17:29:54;24.30;92.20
27559;DHT22;15002;52.028;5.670;2022-09-11T17:32:21;24.30;92.30
27559;DHT22;15002;52.028;5.670;2022-09-11T17:34:47;24.20;92.30
27559;DHT22;15002;52.028;5.670;2022-09-11T17:37:13;24.20;92.30
27559;DHT22;15002;52.028;5.670;2022-09-11T17:39:39;24.20;92.40
27559;DHT22;15002;52.028;5.670;2022-09-11T17:42:06;24.10;92.90
27559;DHT22;15002;52.028;5.670;2022-09-11T17:44:32;24.20;92.70
27559;DHT22;15002;52.028;5.670;2022-09-11T17:46:58;24.10;93.00
27559;DHT22;15002;52.028;5.670;2022-09-11T17:49:27;24.00;93.40
27559;DHT22;15002;52.028;5.670;2022-09-11T17:51:53;23.90;92.80
27559;DHT22;15002;52.028;5.670;2022-09-11T17:54:19;23.90;92.80
27559;DHT22;15002;52.028;5.670;2022-09-11T17:56:45;23.90;93.10
27559;DHT22;15002;52.028;5.670;2022-09-11T17:59:11;23.90;93.80
27559;DHT22;15002;52.028;5.670;2022-09-11T18:01:36;23.80;94.50
27559;DHT22;15002;52.028;5.670;2022-09-11T18:04:02;23.80;95.00
27559;DHT22;15002;52.028;5.670;2022-09-11T18:06:32;23.70;95.60
27559;DHT22;15002;52.028;5.670;2022-09-11T18:09:03;23.60;96.10
27559;DHT22;15002;52.028;5.670;2022-09-11T18:11:39;23.40;96.60
27559;DHT22;15002;52.028;5.670;2022-09-11T18:14:06;23.30;96.60
27559;DHT22;15002;52.028;5.670;2022-09-11T18:16:32;23.10;96.90
27559;DHT22;15002;52.028;5.670;2022-09-11T18:18:58;23.10;97.60
27559;DHT22;15002;52.028;5.670;2022-09-11T18:21:24;22.90;97.50
27559;DHT22;15002;52.028;5.670;2022-09-11T18:23:52;22.90;98.40
27559;DHT22;15002;52.028;5.670;2022-09-11T18:26:28;22.80;98.60
27559;DHT22;15002;52.028;5.670;2022-09-11T18:29:06;22.70;98.20